sensor_id;sensor_type;location;lat;lon;timestamp;P1;durP1;ratioP1;P2;durP2;ratioP2
16699;SDS011;8466;52.286;21.124;2023-07-29T00:01:28;6.68;;;6.18;;
16699;SDS011;8466;52.286;21.124;2023-07-29T00:03:56;6.55;;;6.05;;
16699;SDS011;8466;52.286;21.124;2023-07-29T00:06:26;11.05;;;6.82;;
16699;SDS011;8466;52.286;21.124;2023-07-29T00:08:56;6.75;;;6.15;;
16699;SDS011;8466;52.286;21.124;2023-07-29T00:11:25;7.10;;;6.38;;
16699;SDS011;8466;52.286;21.124;2023-07-29T00:13:54;7.40;;;6.65;;
16699;SDS011;8466;52.286;21.124;2023-07-29T00:16:22;7.40;;;6.70;;
16699;SDS011;8466;52.286;21.124;2023-07-29T00:18:51;6.53;;;5.93;;
16699;SDS011;8466;52.286;21.124;2023-07-29T00:21:20;8.15;;;5.95;;
16699;SDS011;8466;52.286;21.124;2023-07-29T00:23:49;6.78;;;6.13;;
16699;SDS011;8466;52.286;21.124;2023-07-29T00:26:19;6.43;;;5.82;;
16699;SDS011;8466;52.286;21.124;2023-07-29T00:28:48;7.38;;;6.57;;
16699;SDS011;8466;52.286;21.124;2023-07-29T00:31:17;6.97;;;6.38;;
16699;SDS011;8466;52.286;21.124;2023-07-29T00:33:46;6.97;;;6.38;;
16699;SDS011;8466;52.286;21.124;2023-07-29T00:36:15;7.78;;;5.90;;
16699;SDS011;8466;52.286;21.124;2023-07-29T00:38:44;6.63;;;6.10;;
16699;SDS011;8466;52.286;21.124;2023-07-29T00:41:12;7.10;;;6.45;;
16699;SDS011;8466;52.286;21.124;2023-07-29T00:43:43;6.93;;;6.32;;
16699;SDS011;8466;52.286;21.124;2023-07-29T00:46:12;6.40;;;5.82;;
16699;SDS011;8466;52.286;21.124;2023-07-29T00:48:41;7.25;;;6.55;;
16699;SDS011;8466;52.286;21.124;2023-07-29T00:51:10;7.35;;;6.60;;
16699;SDS011;8466;52.286;21.124;2023-07-29T00:53:39;7.63;;;6.13;;
16699;SDS011;8466;52.286;21.124;2023-07-29T00:56:07;7.13;;;6.53;;
16699;SDS011;8466;52.286;21.124;2023-07-29T00:58:36;6.65;;;6.07;;
16699;SDS011;8466;52.286;21.124;2023-07-29T01:01:06;8.30;;;6.30;;
16699;SDS011;8466;52.286;21.124;2023-07-29T01:03:35;6.72;;;6.13;;
16699;SDS011;8466;52.286;21.124;2023-07-29T01:06:07;7.20;;;6.50;;
16699;SDS011;8466;52.286;21.124;2023-07-29T01:08:44;6.88;;;6.38;;
16699;SDS011;8466;52.286;21.124;2023-07-29T01:11:22;11.70;;;7.63;;
16699;SDS011;8466;52.286;21.124;2023-07-29T01:13:59;7.35;;;6.72;;
16699;SDS011;8466;52.286;21.124;2023-07-29T01:16:38;7.55;;;6.85;;
16699;SDS011;8466;52.286;21.124;2023-07-29T01:22:03;7.72;;;6.97;;
16699;SDS011;8466;52.286;21.124;2023-07-29T01:24:36;7.18;;;6.57;;
16699;SDS011;8466;52.286;21.124;2023-07-29T01:27:05;8.45;;;7.15;;
16699;SDS011;8466;52.286;21.124;2023-07-29T01:29:34;6.90;;;6.30;;
16699;SDS011;8466;52.286;21.124;2023-07-29T01:32:04;6.63;;;6.03;;
16699;SDS011;8466;52.286;21.124;2023-07-29T01:34:39;8.15;;;7.18;;
16699;SDS011;8466;52.286;21.124;2023-07-29T01:37:15;8.25;;;7.45;;
16699;SDS011;8466;52.286;21.124;2023-07-29T01:39:51;7.68;;;6.97;;
16699;SDS011;8466;52.286;21.124;2023-07-29T01:42:24;8.15;;;7.45;;
16699;SDS011;8466;52.286;21.124;2023-07-29T01:44:56;7.20;;;6.60;;
16699;SDS011;8466;52.286;21.124;2023-07-29T01:47:25;7.65;;;7.05;;
16699;SDS011;8466;52.286;21.124;2023-07-29T01:49:53;8.43;;;7.63;;
16699;SDS011;8466;52.286;21.124;2023-07-29T01:52:22;8.13;;;7.43;;
16699;SDS011;8466;52.286;21.124;2023-07-29T01:54:52;8.93;;;8.13;;
16699;SDS011;8466;52.286;21.124;2023-07-29T01:57:21;8.90;;;8.20;;
16699;SDS011;8466;52.286;21.124;2023-07-29T01:59:50;8.23;;;7.53;;
16699;SDS011;8466;52.286;21.124;2023-07-29T02:02:19;8.57;;;7.68;;
16699;SDS011;8466;52.286;21.124;2023-07-29T02:04:48;10.00;;;9.10;;
16699;SDS011;8466;52.286;21.124;2023-07-29T02:07:18;10.00;;;9.10;;
16699;SDS011;8466;52.286;21.124;2023-07-29T02:09:47;10.60;;;9.50;;
16699;SDS011;8466;52.286;21.124;2023-07-29T02:12:17;10.60;;;9.60;;
16699;SDS011;8466;52.286;21.124;2023-07-29T02:14:45;11.38;;;10.18;;
16699;SDS011;8466;52.286;21.124;2023-07-29T02:17:14;11.73;;;10.60;;
16699;SDS011;8466;52.286;21.124;2023-07-29T02:19:43;12.43;;;11.23;;
16699;SDS011;8466;52.286;21.124;2023-07-29T02:22:12;12.10;;;10.90;;
16699;SDS011;8466;52.286;21.124;2023-07-29T02:24:42;11.35;;;10.25;;
16699;SDS011;8466;52.286;21.124;2023-07-29T02:27:11;11.00;;;9.77;;
16699;SDS011;8466;52.286;21.124;2023-07-29T02:29:41;11.35;;;10.30;;
16699;SDS011;8466;52.286;21.124;2023-07-29T02:32:10;11.45;;;10.10;;
16699;SDS011;8466;52.286;21.124;2023-07-29T02:34:38;11.88;;;10.40;;
16699;SDS011;8466;52.286;21.124;2023-07-29T02:37:07;12.00;;;10.90;;
16699;SDS011;8466;52.286;21.124;2023-07-29T02:39:36;11.60;;;10.27;;
16699;SDS011;8466;52.286;21.124;2023-07-29T02:42:04;11.88;;;10.68;;
16699;SDS011;8466;52.286;21.124;2023-07-29T02:44:33;11.30;;;10.20;;
16699;SDS011;8466;52.286;21.124;2023-07-29T02:47:04;12.15;;;10.75;;
16699;SDS011;8466;52.286;21.124;2023-07-29T02:49:32;12.35;;;10.77;;
16699;SDS011;8466;52.286;21.124;2023-07-29T02:52:01;12.43;;;11.23;;
16699;SDS011;8466;52.286;21.124;2023-07-29T02:54:30;12.88;;;11.65;;
16699;SDS011;8466;52.286;21.124;2023-07-29T02:56:59;13.35;;;12.05;;
16699;SDS011;8466;52.286;21.124;2023-07-29T02:59:28;13.35;;;12.05;;
16699;SDS011;8466;52.286;21.124;2023-07-29T03:01:56;13.77;;;12.35;;
16699;SDS011;8466;52.286;21.124;2023-07-29T03:04:26;13.52;;;12.25;;
16699;SDS011;8466;52.286;21.124;2023-07-29T03:06:58;12.82;;;11.60;;
16699;SDS011;8466;52.286;21.124;2023-07-29T03:09:27;12.93;;;11.73;;
16699;SDS011;8466;52.286;21.124;2023-07-29T03:11:56;12.07;;;10.90;;
16699;SDS011;8466;52.286;21.124;2023-07-29T03:14:25;12.98;;;11.50;;
16699;SDS011;8466;52.286;21.124;2023-07-29T03:16:55;16.33;;;12.75;;
16699;SDS011;8466;52.286;21.124;2023-07-29T03:19:24;14.73;;;11.70;;
16699;SDS011;8466;52.286;21.124;2023-07-29T03:21:55;14.07;;;12.63;;
16699;SDS011;8466;52.286;21.124;2023-07-29T03:24:23;13.40;;;11.70;;
16699;SDS011;8466;52.286;21.124;2023-07-29T03:26:52;12.68;;;11.48;;
16699;SDS011;8466;52.286;21.124;2023-07-29T03:29:21;13.95;;;12.38;;
16699;SDS011;8466;52.286;21.124;2023-07-29T03:31:49;16.27;;;12.23;;
16699;SDS011;8466;52.286;21.124;2023-07-29T03:34:18;13.20;;;11.77;;
16699;SDS011;8466;52.286;21.124;2023-07-29T03:36:48;12.70;;;11.40;;
16699;SDS011;8466;52.286;21.124;2023-07-29T03:39:18;12.82;;;11.52;;
16699;SDS011;8466;52.286;21.124;2023-07-29T03:41:47;12.98;;;11.73;;
16699;SDS011;8466;52.286;21.124;2023-07-29T03:44:16;13.63;;;12.20;;
16699;SDS011;8466;52.286;21.124;2023-07-29T03:46:45;13.73;;;12.40;;
16699;SDS011;8466;52.286;21.124;2023-07-29T03:49:14;13.68;;;12.38;;
16699;SDS011;8466;52.286;21.124;2023-07-29T03:51:43;13.93;;;11.43;;
16699;SDS011;8466;52.286;21.124;2023-07-29T03:54:13;14.25;;;12.68;;
16699;SDS011;8466;52.286;21.124;2023-07-29T03:56:42;14.88;;;13.27;;
16699;SDS011;8466;52.286;21.124;2023-07-29T03:59:11;14.15;;;12.80;;
16699;SDS011;8466;52.286;21.124;2023-07-29T04:01:39;17.90;;;16.10;;
16699;SDS011;8466;52.286;21.124;2023-07-29T04:04:08;17.77;;;15.90;;
16699;SDS011;8466;52.286;21.124;2023-07-29T04:06:37;16.25;;;14.55;;
16699;SDS011;8466;52.286;21.124;2023-07-29T04:09:06;16.15;;;14.48;;
16699;SDS011;8466;52.286;21.124;2023-07-29T04:11:37;15.90;;;14.20;;
16699;SDS011;8466;52.286;21.124;2023-07-29T04:14:05;13.48;;;12.18;;
16699;SDS011;8466;52.286;21.124;2023-07-29T04:16:34;15.43;;;14.02;;
16699;SDS011;8466;52.286;21.124;2023-07-29T04:19:04;12.93;;;11.82;;
16699;SDS011;8466;52.286;21.124;2023-07-29T04:21:33;11.18;;;10.20;;
16699;SDS011;8466;52.286;21.124;2023-07-29T04:24:02;10.57;;;9.30;;
16699;SDS011;8466;52.286;21.124;2023-07-29T04:26:31;9.07;;;8.20;;
16699;SDS011;8466;52.286;21.124;2023-07-29T04:29:02;8.15;;;7.45;;
16699;SDS011;8466;52.286;21.124;2023-07-29T04:31:31;7.10;;;6.50;;
16699;SDS011;8466;52.286;21.124;2023-07-29T04:34:00;6.88;;;6.20;;
16699;SDS011;8466;52.286;21.124;2023-07-29T04:36:29;6.10;;;5.50;;
16699;SDS011;8466;52.286;21.124;2023-07-29T04:38:58;7.20;;;6.68;;
16699;SDS011;8466;52.286;21.124;2023-07-29T04:41:26;8.13;;;7.30;;
16699;SDS011;8466;52.286;21.124;2023-07-29T04:43:55;8.15;;;7.55;;
16699;SDS011;8466;52.286;21.124;2023-07-29T04:46:25;8.27;;;7.60;;
16699;SDS011;8466;52.286;21.124;2023-07-29T04:48:54;8.52;;;7.72;;
16699;SDS011;8466;52.286;21.124;2023-07-29T04:51:23;8.95;;;8.23;;
16699;SDS011;8466;52.286;21.124;2023-07-29T04:53:52;7.65;;;6.95;;
16699;SDS011;8466;52.286;21.124;2023-07-29T04:56:21;6.55;;;6.05;;
16699;SDS011;8466;52.286;21.124;2023-07-29T04:58:49;9.07;;;7.75;;
16699;SDS011;8466;52.286;21.124;2023-07-29T05:01:19;8.70;;;8.00;;
16699;SDS011;8466;52.286;21.124;2023-07-29T05:03:49;9.93;;;9.05;;
16699;SDS011;8466;52.286;21.124;2023-07-29T05:06:18;8.73;;;8.02;;
16699;SDS011;8466;52.286;21.124;2023-07-29T05:08:47;9.02;;;8.23;;
16699;SDS011;8466;52.286;21.124;2023-07-29T05:11:16;8.13;;;7.32;;
16699;SDS011;8466;52.286;21.124;2023-07-29T05:13:44;8.10;;;7.50;;
16699;SDS011;8466;52.286;21.124;2023-07-29T05:16:13;9.38;;;8.57;;
16699;SDS011;8466;52.286;21.124;2023-07-29T05:18:42;9.38;;;8.50;;
16699;SDS011;8466;52.286;21.124;2023-07-29T05:21:12;9.07;;;8.38;;
16699;SDS011;8466;52.286;21.124;2023-07-29T05:23:41;9.55;;;8.75;;
16699;SDS011;8466;52.286;21.124;2023-07-29T05:26:10;8.95;;;8.15;;
16699;SDS011;8466;52.286;21.124;2023-07-29T05:28:39;8.88;;;8.07;;
16699;SDS011;8466;52.286;21.124;2023-07-29T05:31:08;9.13;;;8.43;;
16699;SDS011;8466;52.286;21.124;2023-07-29T05:33:37;8.48;;;7.72;;
16699;SDS011;8466;52.286;21.124;2023-07-29T05:36:06;9.70;;;8.70;;
16699;SDS011;8466;52.286;21.124;2023-07-29T05:38:36;8.35;;;7.75;;
16699;SDS011;8466;52.286;21.124;2023-07-29T05:41:05;7.60;;;7.00;;
16699;SDS011;8466;52.286;21.124;2023-07-29T05:43:34;8.57;;;7.80;;
16699;SDS011;8466;52.286;21.124;2023-07-29T05:46:03;8.75;;;8.13;;
16699;SDS011;8466;52.286;21.124;2023-07-29T05:48:32;8.05;;;7.45;;
16699;SDS011;8466;52.286;21.124;2023-07-29T05:51:01;8.35;;;7.75;;
16699;SDS011;8466;52.286;21.124;2023-07-29T05:53:31;8.88;;;8.18;;
16699;SDS011;8466;52.286;21.124;2023-07-29T05:56:02;7.90;;;7.30;;
16699;SDS011;8466;52.286;21.124;2023-07-29T05:58:31;7.50;;;6.90;;
16699;SDS011;8466;52.286;21.124;2023-07-29T06:01:00;9.13;;;8.43;;
16699;SDS011;8466;52.286;21.124;2023-07-29T06:03:29;6.95;;;6.45;;
16699;SDS011;8466;52.286;21.124;2023-07-29T06:06:30;7.15;;;6.65;;
16699;SDS011;8466;52.286;21.124;2023-07-29T06:09:21;8.15;;;7.45;;
16699;SDS011;8466;52.286;21.124;2023-07-29T06:11:52;7.30;;;6.70;;
16699;SDS011;8466;52.286;21.124;2023-07-29T06:14:21;7.95;;;7.35;;
16699;SDS011;8466;52.286;21.124;2023-07-29T06:16:50;7.95;;;7.28;;
16699;SDS011;8466;52.286;21.124;2023-07-29T06:19:19;8.27;;;7.65;;
16699;SDS011;8466;52.286;21.124;2023-07-29T06:21:49;9.57;;;8.88;;
16699;SDS011;8466;52.286;21.124;2023-07-29T06:24:19;9.70;;;8.70;;
16699;SDS011;8466;52.286;21.124;2023-07-29T06:26:48;7.88;;;7.28;;
16699;SDS011;8466;52.286;21.124;2023-07-29T06:29:19;8.07;;;7.47;;
16699;SDS011;8466;52.286;21.124;2023-07-29T06:31:48;8.00;;;7.40;;
16699;SDS011;8466;52.286;21.124;2023-07-29T06:34:18;8.85;;;8.15;;
16699;SDS011;8466;52.286;21.124;2023-07-29T06:36:48;8.27;;;7.68;;
16699;SDS011;8466;52.286;21.124;2023-07-29T06:39:19;8.88;;;8.18;;
16699;SDS011;8466;52.286;21.124;2023-07-29T06:41:48;9.30;;;8.40;;
16699;SDS011;8466;52.286;21.124;2023-07-29T06:44:19;9.75;;;9.05;;
16699;SDS011;8466;52.286;21.124;2023-07-29T06:46:48;9.10;;;8.35;;
16699;SDS011;8466;52.286;21.124;2023-07-29T06:49:17;8.02;;;7.40;;
16699;SDS011;8466;52.286;21.124;2023-07-29T06:51:46;9.90;;;8.52;;
16699;SDS011;8466;52.286;21.124;2023-07-29T06:54:16;9.30;;;8.60;;
16699;SDS011;8466;52.286;21.124;2023-07-29T06:56:51;9.27;;;8.40;;
16699;SDS011;8466;52.286;21.124;2023-07-29T07:02:20;8.90;;;8.00;;
16699;SDS011;8466;52.286;21.124;2023-07-29T07:04:49;9.68;;;8.98;;
16699;SDS011;8466;52.286;21.124;2023-07-29T07:07:18;8.98;;;8.27;;
16699;SDS011;8466;52.286;21.124;2023-07-29T07:09:47;10.23;;;9.35;;
16699;SDS011;8466;52.286;21.124;2023-07-29T07:12:16;9.32;;;8.52;;
16699;SDS011;8466;52.286;21.124;2023-07-29T07:14:46;9.52;;;8.73;;
16699;SDS011;8466;52.286;21.124;2023-07-29T07:17:16;10.18;;;9.18;;
16699;SDS011;8466;52.286;21.124;2023-07-29T07:19:46;10.55;;;9.52;;
16699;SDS011;8466;52.286;21.124;2023-07-29T07:22:18;9.05;;;8.18;;
16699;SDS011;8466;52.286;21.124;2023-07-29T07:24:46;9.48;;;8.68;;
16699;SDS011;8466;52.286;21.124;2023-07-29T07:27:15;10.10;;;9.18;;
16699;SDS011;8466;52.286;21.124;2023-07-29T07:29:46;9.40;;;8.50;;
16699;SDS011;8466;52.286;21.124;2023-07-29T07:32:15;9.05;;;8.25;;
16699;SDS011;8466;52.286;21.124;2023-07-29T07:34:43;8.10;;;7.47;;
16699;SDS011;8466;52.286;21.124;2023-07-29T07:37:12;7.68;;;7.07;;
16699;SDS011;8466;52.286;21.124;2023-07-29T07:39:41;7.93;;;7.32;;
16699;SDS011;8466;52.286;21.124;2023-07-29T07:42:10;9.50;;;8.73;;
16699;SDS011;8466;52.286;21.124;2023-07-29T07:44:39;8.77;;;8.02;;
16699;SDS011;8466;52.286;21.124;2023-07-29T07:47:09;8.40;;;7.78;;
16699;SDS011;8466;52.286;21.124;2023-07-29T07:49:38;6.93;;;6.40;;
16699;SDS011;8466;52.286;21.124;2023-07-29T07:52:07;6.97;;;6.38;;
16699;SDS011;8466;52.286;21.124;2023-07-29T07:54:36;8.57;;;7.88;;
16699;SDS011;8466;52.286;21.124;2023-07-29T07:57:05;7.70;;;7.18;;
16699;SDS011;8466;52.286;21.124;2023-07-29T07:59:34;8.18;;;7.25;;
16699;SDS011;8466;52.286;21.124;2023-07-29T08:02:03;8.40;;;7.68;;
16699;SDS011;8466;52.286;21.124;2023-07-29T08:04:34;6.80;;;6.20;;
16699;SDS011;8466;52.286;21.124;2023-07-29T08:07:03;7.97;;;7.00;;
16699;SDS011;8466;52.286;21.124;2023-07-29T08:09:33;8.00;;;7.20;;
16699;SDS011;8466;52.286;21.124;2023-07-29T08:12:02;9.07;;;8.27;;
16699;SDS011;8466;52.286;21.124;2023-07-29T08:14:31;7.57;;;6.97;;
16699;SDS011;8466;52.286;21.124;2023-07-29T08:17:00;7.60;;;7.00;;
16699;SDS011;8466;52.286;21.124;2023-07-29T08:19:30;8.13;;;7.43;;
16699;SDS011;8466;52.286;21.124;2023-07-29T08:22:03;8.10;;;7.40;;
16699;SDS011;8466;52.286;21.124;2023-07-29T08:24:32;10.95;;;7.28;;
16699;SDS011;8466;52.286;21.124;2023-07-29T08:27:02;7.60;;;6.90;;
16699;SDS011;8466;52.286;21.124;2023-07-29T08:29:34;7.85;;;7.22;;
16699;SDS011;8466;52.286;21.124;2023-07-29T08:32:03;7.82;;;7.22;;
16699;SDS011;8466;52.286;21.124;2023-07-29T08:34:31;7.85;;;6.68;;
16699;SDS011;8466;52.286;21.124;2023-07-29T08:37:01;7.53;;;6.93;;
16699;SDS011;8466;52.286;21.124;2023-07-29T08:39:31;6.60;;;6.10;;
16699;SDS011;8466;52.286;21.124;2023-07-29T08:42:01;6.97;;;6.47;;
16699;SDS011;8466;52.286;21.124;2023-07-29T08:44:34;7.15;;;6.65;;
16699;SDS011;8466;52.286;21.124;2023-07-29T08:47:07;7.13;;;6.45;;
16699;SDS011;8466;52.286;21.124;2023-07-29T08:49:37;6.80;;;5.90;;
16699;SDS011;8466;52.286;21.124;2023-07-29T08:52:07;6.60;;;6.10;;
16699;SDS011;8466;52.286;21.124;2023-07-29T08:54:38;6.30;;;5.80;;
16699;SDS011;8466;52.286;21.124;2023-07-29T08:57:08;6.28;;;5.68;;
16699;SDS011;8466;52.286;21.124;2023-07-29T08:59:37;5.45;;;5.05;;
16699;SDS011;8466;52.286;21.124;2023-07-29T09:02:06;5.50;;;5.10;;
16699;SDS011;8466;52.286;21.124;2023-07-29T09:04:35;5.70;;;5.30;;
16699;SDS011;8466;52.286;21.124;2023-07-29T09:07:05;5.30;;;5.00;;
16699;SDS011;8466;52.286;21.124;2023-07-29T09:09:34;5.20;;;4.63;;
16699;SDS011;8466;52.286;21.124;2023-07-29T09:12:07;6.35;;;4.57;;
16699;SDS011;8466;52.286;21.124;2023-07-29T09:14:36;4.03;;;3.83;;
16699;SDS011;8466;52.286;21.124;2023-07-29T09:17:06;4.07;;;3.78;;
16699;SDS011;8466;52.286;21.124;2023-07-29T09:19:36;4.38;;;4.00;;
16699;SDS011;8466;52.286;21.124;2023-07-29T09:22:07;4.35;;;4.05;;
16699;SDS011;8466;52.286;21.124;2023-07-29T09:24:45;4.53;;;4.13;;
16699;SDS011;8466;52.286;21.124;2023-07-29T09:27:24;4.18;;;3.88;;
16699;SDS011;8466;52.286;21.124;2023-07-29T09:29:54;3.70;;;3.40;;
16699;SDS011;8466;52.286;21.124;2023-07-29T09:32:24;3.83;;;3.53;;
16699;SDS011;8466;52.286;21.124;2023-07-29T09:34:53;3.60;;;3.40;;
16699;SDS011;8466;52.286;21.124;2023-07-29T09:37:23;3.80;;;3.50;;
16699;SDS011;8466;52.286;21.124;2023-07-29T09:39:53;3.50;;;3.30;;
16699;SDS011;8466;52.286;21.124;2023-07-29T09:42:22;3.88;;;3.63;;
16699;SDS011;8466;52.286;21.124;2023-07-29T09:44:53;3.45;;;3.15;;
16699;SDS011;8466;52.286;21.124;2023-07-29T09:47:22;3.30;;;3.10;;
16699;SDS011;8466;52.286;21.124;2023-07-29T09:49:52;3.30;;;2.75;;
16699;SDS011;8466;52.286;21.124;2023-07-29T09:52:22;3.05;;;2.80;;
16699;SDS011;8466;52.286;21.124;2023-07-29T09:54:51;2.78;;;2.58;;
16699;SDS011;8466;52.286;21.124;2023-07-29T09:57:20;2.65;;;2.45;;
16699;SDS011;8466;52.286;21.124;2023-07-29T09:59:56;2.90;;;2.70;;
16699;SDS011;8466;52.286;21.124;2023-07-29T10:02:25;2.45;;;2.35;;
16699;SDS011;8466;52.286;21.124;2023-07-29T10:04:56;2.00;;;1.90;;
16699;SDS011;8466;52.286;21.124;2023-07-29T10:07:25;2.50;;;2.40;;
16699;SDS011;8466;52.286;21.124;2023-07-29T10:09:56;2.63;;;2.42;;
16699;SDS011;8466;52.286;21.124;2023-07-29T10:12:27;3.20;;;3.00;;
16699;SDS011;8466;52.286;21.124;2023-07-29T10:15:00;2.20;;;2.10;;
16699;SDS011;8466;52.286;21.124;2023-07-29T10:17:31;2.60;;;2.40;;
16699;SDS011;8466;52.286;21.124;2023-07-29T10:20:03;2.53;;;2.33;;
16699;SDS011;8466;52.286;21.124;2023-07-29T10:22:36;2.97;;;2.38;;
16699;SDS011;8466;52.286;21.124;2023-07-29T10:25:07;2.50;;;2.33;;
16699;SDS011;8466;52.286;21.124;2023-07-29T10:27:41;2.28;;;2.17;;
16699;SDS011;8466;52.286;21.124;2023-07-29T10:30:12;3.28;;;2.35;;
16699;SDS011;8466;52.286;21.124;2023-07-29T10:32:42;2.53;;;2.13;;
16699;SDS011;8466;52.286;21.124;2023-07-29T10:35:12;2.50;;;2.10;;
16699;SDS011;8466;52.286;21.124;2023-07-29T10:37:41;2.13;;;2.03;;
16699;SDS011;8466;52.286;21.124;2023-07-29T10:40:12;2.25;;;2.13;;
16699;SDS011;8466;52.286;21.124;2023-07-29T10:42:59;2.40;;;2.30;;
16699;SDS011;8466;52.286;21.124;2023-07-29T10:45:37;3.70;;;2.30;;
16699;SDS011;8466;52.286;21.124;2023-07-29T10:48:08;2.85;;;2.10;;
16699;SDS011;8466;52.286;21.124;2023-07-29T10:50:39;2.20;;;2.10;;
16699;SDS011;8466;52.286;21.124;2023-07-29T10:53:08;2.05;;;1.95;;
16699;SDS011;8466;52.286;21.124;2023-07-29T10:55:36;3.35;;;2.10;;
16699;SDS011;8466;52.286;21.124;2023-07-29T10:58:06;2.40;;;2.25;;
16699;SDS011;8466;52.286;21.124;2023-07-29T11:00:39;4.40;;;1.90;;
16699;SDS011;8466;52.286;21.124;2023-07-29T11:03:10;1.98;;;1.85;;
16699;SDS011;8466;52.286;21.124;2023-07-29T11:05:42;1.95;;;1.70;;
16699;SDS011;8466;52.286;21.124;2023-07-29T11:08:17;1.90;;;1.80;;
16699;SDS011;8466;52.286;21.124;2023-07-29T11:11:03;1.95;;;1.80;;
16699;SDS011;8466;52.286;21.124;2023-07-29T11:13:33;2.15;;;1.83;;
16699;SDS011;8466;52.286;21.124;2023-07-29T11:16:05;3.00;;;1.70;;
16699;SDS011;8466;52.286;21.124;2023-07-29T11:18:35;2.10;;;2.00;;
16699;SDS011;8466;52.286;21.124;2023-07-29T11:21:04;2.65;;;2.10;;
16699;SDS011;8466;52.286;21.124;2023-07-29T11:23:34;2.10;;;2.00;;
16699;SDS011;8466;52.286;21.124;2023-07-29T11:26:03;1.88;;;1.77;;
16699;SDS011;8466;52.286;21.124;2023-07-29T11:28:37;2.20;;;2.00;;
16699;SDS011;8466;52.286;21.124;2023-07-29T11:31:09;1.77;;;1.65;;
16699;SDS011;8466;52.286;21.124;2023-07-29T11:33:38;2.17;;;2.00;;
16699;SDS011;8466;52.286;21.124;2023-07-29T11:36:16;3.15;;;1.88;;
16699;SDS011;8466;52.286;21.124;2023-07-29T11:38:46;2.00;;;1.88;;
16699;SDS011;8466;52.286;21.124;2023-07-29T11:41:19;2.10;;;1.88;;
16699;SDS011;8466;52.286;21.124;2023-07-29T11:43:49;1.70;;;1.60;;
16699;SDS011;8466;52.286;21.124;2023-07-29T11:46:22;1.48;;;1.48;;
16699;SDS011;8466;52.286;21.124;2023-07-29T11:48:51;1.40;;;1.40;;
16699;SDS011;8466;52.286;21.124;2023-07-29T11:51:22;1.67;;;1.58;;
16699;SDS011;8466;52.286;21.124;2023-07-29T11:53:53;3.30;;;1.70;;
16699;SDS011;8466;52.286;21.124;2023-07-29T11:56:22;1.80;;;1.70;;
16699;SDS011;8466;52.286;21.124;2023-07-29T11:58:52;2.08;;;1.90;;
16699;SDS011;8466;52.286;21.124;2023-07-29T12:01:26;1.95;;;1.70;;
16699;SDS011;8466;52.286;21.124;2023-07-29T12:03:56;1.67;;;1.60;;
16699;SDS011;8466;52.286;21.124;2023-07-29T12:06:26;1.80;;;1.70;;
16699;SDS011;8466;52.286;21.124;2023-07-29T12:08:57;1.83;;;1.73;;
16699;SDS011;8466;52.286;21.124;2023-07-29T12:11:26;1.70;;;1.60;;
16699;SDS011;8466;52.286;21.124;2023-07-29T12:13:55;1.70;;;1.60;;
16699;SDS011;8466;52.286;21.124;2023-07-29T12:16:25;1.50;;;1.50;;
16699;SDS011;8466;52.286;21.124;2023-07-29T12:19:01;1.80;;;1.70;;
16699;SDS011;8466;52.286;21.124;2023-07-29T12:21:29;2.20;;;1.70;;
16699;SDS011;8466;52.286;21.124;2023-07-29T12:23:58;1.75;;;1.65;;
16699;SDS011;8466;52.286;21.124;2023-07-29T12:26:27;1.92;;;1.83;;
16699;SDS011;8466;52.286;21.124;2023-07-29T12:28:56;1.67;;;1.58;;
16699;SDS011;8466;52.286;21.124;2023-07-29T12:31:32;2.33;;;1.70;;
16699;SDS011;8466;52.286;21.124;2023-07-29T12:34:00;1.92;;;1.83;;
16699;SDS011;8466;52.286;21.124;2023-07-29T12:36:40;1.90;;;1.80;;
16699;SDS011;8466;52.286;21.124;2023-07-29T12:39:17;1.88;;;1.77;;
16699;SDS011;8466;52.286;21.124;2023-07-29T12:41:49;1.65;;;1.55;;
16699;SDS011;8466;52.286;21.124;2023-07-29T12:44:18;2.10;;;1.70;;
16699;SDS011;8466;52.286;21.124;2023-07-29T12:46:49;1.80;;;1.70;;
16699;SDS011;8466;52.286;21.124;2023-07-29T12:49:19;1.67;;;1.60;;
16699;SDS011;8466;52.286;21.124;2023-07-29T12:51:49;1.70;;;1.60;;
16699;SDS011;8466;52.286;21.124;2023-07-29T12:54:18;1.77;;;1.67;;
16699;SDS011;8466;52.286;21.124;2023-07-29T12:56:46;1.73;;;1.63;;
16699;SDS011;8466;52.286;21.124;2023-07-29T12:59:15;2.05;;;1.67;;
16699;SDS011;8466;52.286;21.124;2023-07-29T13:01:44;2.00;;;1.90;;
16699;SDS011;8466;52.286;21.124;2023-07-29T13:04:19;1.83;;;1.73;;
16699;SDS011;8466;52.286;21.124;2023-07-29T13:06:48;1.67;;;1.58;;
16699;SDS011;8466;52.286;21.124;2023-07-29T13:09:24;1.88;;;1.75;;
16699;SDS011;8466;52.286;21.124;2023-07-29T13:11:53;2.08;;;1.92;;
16699;SDS011;8466;52.286;21.124;2023-07-29T13:14:25;2.30;;;2.03;;
16699;SDS011;8466;52.286;21.124;2023-07-29T13:17:14;2.38;;;1.75;;
16699;SDS011;8466;52.286;21.124;2023-07-29T13:19:48;1.83;;;1.70;;
16699;SDS011;8466;52.286;21.124;2023-07-29T13:22:22;2.00;;;1.90;;
16699;SDS011;8466;52.286;21.124;2023-07-29T13:24:55;1.90;;;1.80;;
16699;SDS011;8466;52.286;21.124;2023-07-29T13:27:54;2.00;;;1.90;;
16699;SDS011;8466;52.286;21.124;2023-07-29T13:30:26;2.55;;;1.85;;
16699;SDS011;8466;52.286;21.124;2023-07-29T13:32:58;3.75;;;2.20;;
16699;SDS011;8466;52.286;21.124;2023-07-29T13:35:31;1.90;;;1.80;;
16699;SDS011;8466;52.286;21.124;2023-07-29T13:38:02;2.00;;;1.90;;
16699;SDS011;8466;52.286;21.124;2023-07-29T13:40:31;1.85;;;1.60;;
16699;SDS011;8466;52.286;21.124;2023-07-29T13:43:03;2.03;;;1.92;;
16699;SDS011;8466;52.286;21.124;2023-07-29T13:45:33;1.98;;;1.88;;
16699;SDS011;8466;52.286;21.124;2023-07-29T13:48:03;1.80;;;1.70;;
16699;SDS011;8466;52.286;21.124;2023-07-29T13:50:34;3.15;;;2.17;;
16699;SDS011;8466;52.286;21.124;2023-07-29T13:53:03;2.22;;;2.03;;
16699;SDS011;8466;52.286;21.124;2023-07-29T13:55:31;2.10;;;1.92;;
16699;SDS011;8466;52.286;21.124;2023-07-29T13:58:01;2.00;;;1.90;;
16699;SDS011;8466;52.286;21.124;2023-07-29T14:00:30;2.00;;;1.90;;
16699;SDS011;8466;52.286;21.124;2023-07-29T14:02:59;4.32;;;3.03;;
16699;SDS011;8466;52.286;21.124;2023-07-29T14:05:28;3.25;;;2.00;;
16699;SDS011;8466;52.286;21.124;2023-07-29T14:07:58;3.97;;;2.63;;
16699;SDS011;8466;52.286;21.124;2023-07-29T14:10:27;2.05;;;1.95;;
16699;SDS011;8466;52.286;21.124;2023-07-29T14:12:56;2.38;;;1.90;;
16699;SDS011;8466;52.286;21.124;2023-07-29T14:15:25;1.98;;;1.88;;
16699;SDS011;8466;52.286;21.124;2023-07-29T14:17:55;2.10;;;2.00;;
16699;SDS011;8466;52.286;21.124;2023-07-29T14:20:24;1.63;;;1.60;;
16699;SDS011;8466;52.286;21.124;2023-07-29T14:22:53;1.95;;;1.85;;
16699;SDS011;8466;52.286;21.124;2023-07-29T14:25:23;2.50;;;2.30;;
16699;SDS011;8466;52.286;21.124;2023-07-29T14:27:52;1.90;;;1.80;;
16699;SDS011;8466;52.286;21.124;2023-07-29T14:30:21;1.98;;;1.85;;
16699;SDS011;8466;52.286;21.124;2023-07-29T14:32:50;2.25;;;2.05;;
16699;SDS011;8466;52.286;21.124;2023-07-29T14:35:19;1.80;;;1.70;;
16699;SDS011;8466;52.286;21.124;2023-07-29T14:37:48;3.25;;;2.67;;
16699;SDS011;8466;52.286;21.124;2023-07-29T14:40:17;2.30;;;2.10;;
16699;SDS011;8466;52.286;21.124;2023-07-29T14:42:47;2.90;;;1.80;;
16699;SDS011;8466;52.286;21.124;2023-07-29T14:45:16;2.00;;;1.90;;
16699;SDS011;8466;52.286;21.124;2023-07-29T14:47:46;2.92;;;2.10;;
16699;SDS011;8466;52.286;21.124;2023-07-29T14:50:14;1.90;;;1.80;;
16699;SDS011;8466;52.286;21.124;2023-07-29T14:52:43;2.08;;;1.90;;
16699;SDS011;8466;52.286;21.124;2023-07-29T14:55:12;2.35;;;2.15;;
16699;SDS011;8466;52.286;21.124;2023-07-29T14:57:41;2.33;;;2.10;;
16699;SDS011;8466;52.286;21.124;2023-07-29T15:00:12;2.47;;;2.25;;
16699;SDS011;8466;52.286;21.124;2023-07-29T15:02:41;8.65;;;3.97;;
16699;SDS011;8466;52.286;21.124;2023-07-29T15:05:10;4.38;;;2.92;;
16699;SDS011;8466;52.286;21.124;2023-07-29T15:07:39;10.35;;;3.40;;